TimePST,TemperatureF,Dew PointF,Humidity,Sea Level PressureIn,VisibilityMPH,Wind Direction,Wind SpeedMPH,Gust SpeedMPH,PrecipitationIn,Events,Conditions,WindDirDegrees,DateUTC
12:55 AM,27.0,18.0,69,29.81,10.0,Calm,Calm,-,N/A,,Clear,0,2012-12-13 08:55:00
1:55 AM,25.0,17.1,72,29.81,10.0,Calm,Calm,-,N/A,,Clear,0,2012-12-13 09:55:00
2:55 AM,24.1,17.1,75,29.83,10.0,SW,3.5,-,N/A,,Clear,220,2012-12-13 10:55:00
3:55 AM,24.8,17.6,74,29.79,10.0,Calm,Calm,-,N/A,,Scattered Clouds,0,2012-12-13 11:55:00
4:55 AM,26.1,15.1,63,29.85,10.0,West,4.6,-,N/A,,Mostly Cloudy,280,2012-12-13 12:55:00
5:55 AM,25.0,16.0,69,29.86,10.0,WNW,4.6,-,N/A,,Mostly Cloudy,290,2012-12-13 13:55:00
6:55 AM,26.1,15.1,63,29.87,10.0,Variable,3.5,-,N/A,,Mostly Cloudy,0,2012-12-13 14:55:00
7:55 AM,26.1,17.1,69,29.88,10.0,Calm,Calm,-,N/A,,Mostly Cloudy,0,2012-12-13 15:55:00
8:55 AM,28.9,17.1,61,29.89,10.0,SW,4.6,-,N/A,,Scattered Clouds,220,2012-12-13 16:55:00
9:55 AM,30.9,18.0,59,29.88,10.0,Calm,Calm,-,N/A,,Scattered Clouds,0,2012-12-13 17:55:00
10:55 AM,34.0,18.0,52,29.86,10.0,Calm,Calm,-,N/A,,Scattered Clouds,0,2012-12-13 18:55:00
11:55 AM,37.9,18.0,45,29.84,10.0,Calm,Calm,-,N/A,,Mostly Cloudy,0,2012-12-13 19:55:00
12:55 PM,39.0,18.0,43,29.83,10.0,Calm,Calm,-,N/A,,Mostly Cloudy,0,2012-12-13 20:55:00
1:55 PM,37.0,19.0,48,29.83,10.0,NE,9.2,-,N/A,,Mostly Cloudy,40,2012-12-13 21:55:00
4:55 PM,35.6,19.4,52,29.79,10.0,Calm,Calm,-,N/A,,Partly Cloudy,0,2012-12-14 00:55:00
5:55 PM,30.9,19.9,64,29.85,10.0,SSW,3.5,-,N/A,,Partly Cloudy,200,2012-12-14 01:55:00
6:55 PM,30.9,19.0,61,29.85,10.0,Calm,Calm,-,N/A,,Partly Cloudy,0,2012-12-14 02:55:00
7:55 PM,30.9,19.0,61,29.85,10.0,Calm,Calm,-,N/A,,Clear,0,2012-12-14 03:55:00
8:55 PM,28.9,19.0,67,29.85,10.0,WNW,5.8,-,N/A,,Clear,290,2012-12-14 04:55:00
9:55 PM,27.0,17.1,66,29.84,10.0,West,4.6,-,N/A,,Clear,280,2012-12-14 05:55:00
10:55 PM,26.1,17.1,69,29.83,10.0,WNW,4.6,-,N/A,,Clear,290,2012-12-14 06:55:00
11:55 PM,25.0,16.0,69,29.81,10.0,Variable,4.6,-,N/A,,Clear,0,2012-12-14 07:55:00